Terminal Aerodrome Forecast
Issued by NWS North Platte, NE

Home | Current Version | Previous Version | Text Only | Print | Product List | Glossary On
Versions: 1 2 3 4 5 6 7 8 9 10 11 12 13 14 15 16 17 18 19 20 21 22 23 24 25 26 27 28 29 30
000
FTUS43 KLBF 291700
TAFVTN
TAF
KVTN 291735Z 2918/3018 34012G18KT P6SM SCT100
     FM292200 35010KT P6SM BKN100
      TEMPO 3000/3003 5SM -TSRA BKN070CB
     FM300300 29006KT P6SM SCT100 BKN150
     FM300800 VRB06KT 5SM BR SKC
     FM301500 15008KT P6SM SCT200=

USA.gov is the U.S. government's official web portal to all federal, state and local government web resources and services.